Time;durP1;ratioP1;P1;durP2;ratioP2;P2;SDS_P1;SDS_P2;PMS_P1;PMS_P2;Temp;Humidity;BMP_temperature;BMP_pressure;BME280_temperature;BME280_humidity;BME280_pressure;Samples;Min_cycle;Max_cycle;Signal;HPM_P1;HPM_P2
2022/01/08 00:01:00;;;;;;;16.48;9.27;;;;;;;2.56;79.90;100810.72;3577259;40;20048;-62
2022/01/08 00:03:25;;;;;;;17.38;9.40;;;;;;;2.51;79.32;100804.72;3589052;40;20370;-62
2022/01/08 00:05:51;;;;;;;20.42;9.20;;;;;;;2.48;78.94;100810.09;3590398;40;20059;-62
2022/01/08 00:08:16;;;;;;;16.58;9.70;;;;;;;2.43;79.10;100818.16;3585346;40;20052;-62
2022/01/08 00:10:42;;;;;;;14.98;9.10;;;;;;;2.41;78.85;100813.81;3584907;40;20052;-62
2022/01/08 00:13:08;;;;;;;17.63;9.48;;;;;;;2.39;78.91;100816.53;3588876;40;20473;-62
2022/01/08 00:15:36;;;;;;;15.75;9.60;;;;;;;2.36;79.67;100819.25;3589578;40;20063;-62
2022/01/08 00:18:02;;;;;;;16.90;9.32;;;;;;;2.07;79.66;100783.81;3590583;40;20047;-62
2022/01/08 00:20:30;;;;;;;17.13;11.10;;;;;;;2.28;78.89;100835.41;3588549;40;20346;-62
2022/01/08 00:22:56;;;;;;;18.98;10.52;;;;;;;2.26;79.52;100823.09;3591317;40;20060;-62
2022/01/08 00:25:22;;;;;;;19.15;10.52;;;;;;;2.24;79.55;100840.81;3585643;40;20064;-62
2022/01/08 00:27:48;;;;;;;15.45;10.48;;;;;;;2.25;80.02;100838.16;3588379;40;20063;-62
2022/01/08 00:30:14;;;;;;;17.38;10.63;;;;;;;2.24;79.64;100831.06;3589131;40;20071;-62
2022/01/08 00:32:42;;;;;;;22.42;10.05;;;;;;;2.25;79.61;100835.50;3594049;40;20393;-62
2022/01/08 00:35:10;;;;;;;15.75;10.27;;;;;;;2.23;79.39;100831.13;3582529;40;20044;-62
2022/01/08 00:37:37;;;;;;;16.63;10.30;;;;;;;2.22;79.65;100840.88;3590713;40;20056;-62
2022/01/08 00:40:09;;;;;;;19.67;10.77;;;;;;;2.02;79.99;100800.75;3593106;39;20059;-62
2022/01/08 00:42:35;;;;;;;19.42;10.63;;;;;;;2.23;80.20;100837.31;3590050;40;20096;-62
2022/01/08 00:45:01;;;;;;;16.08;10.52;;;;;;;2.23;80.05;100844.41;3593934;40;20096;-62
2022/01/08 00:47:27;;;;;;;16.40;10.10;;;;;;;2.24;80.29;100846.13;3591315;40;20173;-62
2022/01/08 00:49:52;;;;;;;17.08;10.82;;;;;;;1.90;79.25;100809.91;3593403;39;20083;-62
2022/01/08 00:52:18;;;;;;;19.35;10.73;;;;;;;2.22;80.17;100866.50;3594201;40;20093;-62
2022/01/08 00:54:44;;;;;;;18.65;10.85;;;;;;;2.24;79.95;100870.00;3596784;40;20063;-62
2022/01/08 00:57:09;;;;;;;16.67;10.63;;;;;;;2.22;80.25;100867.41;3592928;40;20395;-62
2022/01/08 00:59:35;;;;;;;17.85;11.15;;;;;;;2.22;80.18;100866.50;3593390;39;20056;-62
2022/01/08 01:02:01;;;;;;;17.13;10.85;;;;;;;1.97;79.29;100824.75;3590591;40;20134;-62
2022/01/08 01:04:27;;;;;;;19.27;11.43;;;;;;;2.22;78.97;100863.84;3592685;40;20152;-62
2022/01/08 01:06:53;;;;;;;20.92;11.13;;;;;;;2.21;79.46;100859.47;3591141;40;20099;-62
2022/01/08 01:09:19;;;;;;;20.98;11.63;;;;;;;2.19;79.34;100864.81;3592266;39;20070;-63
2022/01/08 01:11:44;;;;;;;16.80;11.30;;;;;;;2.17;78.76;100852.50;3587637;40;20391;-62
2022/01/08 01:14:10;;;;;;;17.02;10.70;;;;;;;2.11;79.38;100844.72;3584886;40;20055;-63
2022/01/08 01:16:35;;;;;;;17.27;10.73;;;;;;;2.11;79.08;100850.88;3584233;40;20092;-63
2022/01/08 01:19:03;;;;;;;19.48;11.45;;;;;;;2.12;79.53;100851.75;3584285;40;20144;-63
2022/01/08 01:21:29;;;;;;;18.27;11.38;;;;;;;2.03;79.03;100847.56;3584270;40;20130;-62
2022/01/08 01:23:56;;;;;;;19.25;11.65;;;;;;;2.05;78.96;100851.91;3584175;40;20387;-63
2022/01/08 01:26:25;;;;;;;20.10;11.68;;;;;;;2.02;78.40;100851.13;3585155;40;20045;-62
2022/01/08 01:47:29;;;;;;;24.33;15.65;;;;;;;1.93;79.76;100870.78;3586623;40;20046;-63
2022/01/08 01:49:55;;;;;;;22.13;14.75;;;;;;;1.93;80.15;100877.88;3584591;40;20048;-62
2022/01/08 01:52:21;;;;;;;22.67;14.88;;;;;;;1.93;80.15;100867.28;3589612;40;20088;-63
2022/01/08 01:54:47;;;;;;;22.40;15.65;;;;;;;1.92;80.04;100863.75;3594785;40;20044;-63
2022/01/08 01:57:13;;;;;;;22.15;14.85;;;;;;;1.92;80.11;100865.53;3590193;40;20066;-63
2022/01/08 01:59:40;;;;;;;21.83;15.20;;;;;;;1.89;80.33;100858.53;3590761;39;20054;-62
2022/01/08 02:02:06;;;;;;;24.85;16.20;;;;;;;1.91;80.25;100866.47;3592065;40;20048;-63
2022/01/08 02:04:32;;;;;;;23.58;15.30;;;;;;;1.87;79.76;100860.34;3594393;40;20056;-63
2022/01/08 02:06:58;;;;;;;28.52;15.68;;;;;;;1.86;80.25;100864.78;3594305;40;20383;-63
2022/01/08 02:09:24;;;;;;;24.92;15.68;;;;;;;1.85;79.91;100862.19;3590428;40;20064;-63
2022/01/08 02:11:58;;;;;;;24.35;15.63;;;;;;;1.85;80.13;100862.19;3592220;40;20059;-62
2022/01/08 02:14:27;;;;;;;26.70;16.00;;;;;;;1.83;80.48;100869.28;3590928;40;20060;-63
2022/01/08 02:16:52;;;;;;;23.83;15.93;;;;;;;1.65;79.99;100837.94;3584731;40;20052;-63
2022/01/08 02:19:18;;;;;;;25.52;15.70;;;;;;;1.81;80.58;100866.69;3593779;40;20408;-62
2022/01/08 02:21:54;;;;;;;24.60;16.20;;;;;;;1.82;79.82;100864.91;3592021;40;20067;-63
2022/01/08 02:24:22;;;;;;;25.33;16.73;;;;;;;1.80;80.69;100870.22;3590514;40;20054;-65
2022/01/08 02:26:49;;;;;;;24.92;17.20;;;;;;;1.82;80.67;100871.06;3593751;40;20048;-63
2022/01/08 02:29:21;;;;;;;27.42;16.90;;;;;;;1.82;80.68;100884.31;3593657;39;20063;-63
2022/01/08 02:32:03;;;;;;;26.63;16.83;;;;;;;1.71;80.56;100865.16;3594755;40;20059;-63
2022/01/08 02:34:30;;;;;;;29.67;16.60;;;;;;;1.79;80.14;100884.41;3590148;40;20364;-62
2022/01/08 02:36:58;;;;;;;24.48;17.10;;;;;;;1.86;81.07;100879.81;3591977;40;20052;-63
2022/01/08 02:41:58;;;;;;;22.88;14.88;;;;;;;1.84;79.78;100879.88;3582402;40;20052;-63
2022/01/08 02:44:27;;;;;;;26.08;16.27;;;;;;;1.87;81.29;100892.16;3579359;40;20457;-62
2022/01/08 02:46:53;;;;;;;27.95;16.92;;;;;;;1.90;80.75;100884.13;3575517;40;20368;-64
2022/01/08 02:49:21;;;;;;;25.30;15.52;;;;;;;1.92;80.67;100892.91;3579014;40;20052;-64
2022/01/08 02:51:48;;;;;;;27.58;16.92;;;;;;;1.96;80.65;100886.63;3584192;40;20052;-64
2022/01/08 02:54:13;;;;;;;27.08;15.90;;;;;;;2.01;81.34;100890.03;3580154;40;20048;-64
2022/01/08 02:56:45;;;;;;;27.13;15.63;;;;;;;1.83;80.77;100854.25;3580816;40;20083;-62
2022/01/08 02:59:13;;;;;;;28.27;15.57;;;;;;;2.04;80.89;100884.66;3583369;40;20384;-64
2022/01/08 03:01:40;;;;;;;25.98;16.20;;;;;;;2.07;80.70;100889.00;3575112;40;20158;-63
2022/01/08 03:04:08;;;;;;;25.25;14.82;;;;;;;2.06;81.21;100882.84;3575602;40;20057;-64
2022/01/08 03:06:34;;;;;;;26.17;16.25;;;;;;;1.90;80.09;100854.97;3575544;40;20052;-64
2022/01/08 03:08:59;;;;;;;25.70;14.77;;;;;;;2.05;80.49;100889.03;3575365;40;20059;-63
2022/01/08 03:11:25;;;;;;;26.15;15.40;;;;;;;2.02;80.70;100881.16;3582884;40;20059;-63
2022/01/08 03:13:52;;;;;;;24.02;15.02;;;;;;;2.08;79.78;100886.31;3583761;40;20051;-64
2022/01/08 03:16:20;;;;;;;24.85;15.00;;;;;;;2.06;80.23;100888.16;3583306;40;20092;-63
2022/01/08 03:18:48;;;;;;;23.48;14.63;;;;;;;1.83;80.19;100848.94;3585103;40;20060;-63
2022/01/08 03:21:18;;;;;;;21.67;15.05;;;;;;;2.03;79.62;100877.63;3583094;40;20040;-64
2022/01/08 03:23:54;;;;;;;25.27;15.32;;;;;;;2.03;80.62;100884.66;3584092;40;20130;-64
2022/01/08 03:26:24;;;;;;;28.85;15.77;;;;;;;2.01;79.87;100884.72;3583449;40;20044;-63
2022/01/08 03:28:51;;;;;;;23.20;15.23;;;;;;;1.90;80.11;100881.47;3583883;40;20052;-64
2022/01/08 03:31:17;;;;;;;30.08;14.85;;;;;;;1.99;80.78;100885.66;3582894;40;20048;-65
2022/01/08 03:33:44;;;;;;;23.30;14.20;;;;;;;1.95;80.95;100884.88;3580468;40;20052;-64
2022/01/08 03:36:12;;;;;;;26.85;15.38;;;;;;;1.99;79.73;100891.84;3583312;40;20056;-64
2022/01/08 03:38:38;;;;;;;22.75;14.30;;;;;;;1.95;80.35;100884.88;3582311;40;20122;-63
2022/01/08 03:41:04;;;;;;;31.17;15.10;;;;;;;1.95;80.55;100884.00;3575525;40;20064;-63
2022/01/08 03:43:30;;;;;;;25.00;13.63;;;;;;;1.94;81.08;100896.41;3576352;40;20590;-64
2022/01/08 03:45:58;;;;;;;24.38;13.65;;;;;;;1.95;80.41;100891.97;3583339;40;20052;-65
2022/01/08 03:48:30;;;;;;;24.88;13.70;;;;;;;1.94;80.21;100883.16;3579070;40;20301;-62
2022/01/08 03:50:57;;;;;;;21.75;13.85;;;;;;;1.94;80.93;100888.44;3577992;40;20048;-63
2022/01/08 03:53:26;;;;;;;23.98;13.50;;;;;;;1.95;80.09;100886.66;3578770;40;20049;-64
2022/01/08 03:55:53;;;;;;;22.88;13.50;;;;;;;1.95;80.72;100884.88;3580899;40;20053;-64
2022/01/08 03:58:19;;;;;;;18.77;13.13;;;;;;;1.80;79.85;100867.56;3582186;40;20365;-64
2022/01/08 04:00:47;;;;;;;21.27;12.73;;;;;;;1.95;80.21;100884.88;3583084;40;20129;-63
2022/01/08 04:03:13;;;;;;;24.08;13.38;;;;;;;1.94;80.30;100890.25;3582921;40;20055;-64
2022/01/08 04:05:39;;;;;;;20.50;12.80;;;;;;;1.94;80.58;100898.19;3576704;40;20048;-64
2022/01/08 04:08:05;;;;;;;20.23;12.40;;;;;;;1.93;79.74;100907.03;3573744;40;20052;-63
2022/01/08 04:10:30;;;;;;;22.65;13.48;;;;;;;1.92;80.59;100902.66;3575202;40;20632;-63
2022/01/08 04:13:01;;;;;;;23.10;12.88;;;;;;;1.93;80.13;100909.69;3574875;40;20064;-64
2022/01/08 04:17:54;;;;;;;22.45;12.15;;;;;;;1.92;80.24;100903.50;3575495;40;20055;-64
2022/01/08 04:20:22;;;;;;;20.67;13.07;;;;;;;1.81;80.50;100882.59;3575102;40;20075;-65
2022/01/08 04:22:50;;;;;;;20.50;12.25;;;;;;;1.97;81.00;100908.72;3576923;40;20078;-65
2022/01/08 04:25:20;;;;;;;24.20;13.40;;;;;;;1.97;81.21;100912.22;3575901;40;20045;-64
2022/01/08 04:27:46;;;;;;;23.15;11.98;;;;;;;1.96;80.32;100906.94;3574695;40;20088;-63
2022/01/08 04:30:12;;;;;;;23.10;13.27;;;;;;;1.71;80.53;100870.44;3577474;40;20059;-62
2022/01/08 04:32:38;;;;;;;21.95;12.75;;;;;;;1.97;80.84;100920.19;3583418;40;20306;-63
2022/01/08 04:35:04;;;;;;;22.83;13.43;;;;;;;1.94;80.88;100925.56;3583514;40;20060;-64
2022/01/08 04:37:30;;;;;;;23.67;13.02;;;;;;;1.96;80.93;100926.38;3579348;40;20112;-63
2022/01/08 04:39:55;;;;;;;21.75;13.63;;;;;;;1.96;80.23;100928.16;3582597;40;20053;-65
2022/01/08 04:42:21;;;;;;;29.90;16.63;;;;;;;1.95;81.14;100919.34;3582169;40;20048;-64
2022/01/08 04:44:47;;;;;;;25.27;13.75;;;;;;;1.94;80.84;100922.91;3573452;40;20048;-64
2022/01/08 04:47:14;;;;;;;21.33;12.85;;;;;;;1.96;80.46;100934.31;3582186;40;20156;-63
2022/01/08 04:49:39;;;;;;;21.50;13.15;;;;;;;1.96;80.31;100923.72;3582519;40;20129;-62
2022/01/08 04:52:06;;;;;;;24.30;12.23;;;;;;;1.97;81.48;100933.44;3582559;40;20056;-64
2022/01/08 04:54:32;;;;;;;26.52;12.18;;;;;;;1.94;80.92;100925.56;3581718;40;20130;-65
2022/01/08 04:56:57;;;;;;;20.25;12.30;;;;;;;1.97;80.62;100936.09;3575019;40;20056;-64
2022/01/08 04:59:23;;;;;;;20.50;12.57;;;;;;;1.97;80.71;100940.53;3580525;40;20315;-63
2022/01/08 05:01:49;;;;;;;24.27;12.57;;;;;;;1.97;81.17;100946.69;3582821;40;20059;-64
2022/01/08 05:04:14;;;;;;;27.92;12.60;;;;;;;1.98;79.92;100943.13;3578879;40;20054;-64
2022/01/08 05:06:40;;;;;;;19.52;11.50;;;;;;;1.95;81.15;100932.59;3579019;40;20375;-66
2022/01/08 05:09:06;;;;;;;20.00;12.20;;;;;;;1.97;80.39;100951.13;3579347;40;20063;-63
2022/01/08 05:11:31;;;;;;;20.20;11.60;;;;;;;1.96;80.29;100949.38;3575644;40;20060;-63
2022/01/08 05:13:57;;;;;;;19.92;11.68;;;;;;;1.94;80.74;100960.03;3581175;40;20061;-63
2022/01/08 05:16:26;;;;;;;17.67;10.35;;;;;;;1.93;80.56;100955.59;3577509;40;20052;-64
2022/01/08 05:18:54;;;;;;;24.67;11.80;;;;;;;1.92;80.46;100959.19;3582800;40;20303;-64
2022/01/08 05:21:25;;;;;;;18.00;11.10;;;;;;;1.90;80.88;100955.69;3576850;40;20062;-64
2022/01/08 05:23:52;;;;;;;20.27;11.45;;;;;;;1.85;81.02;100961.09;3574305;40;20057;-64
2022/01/08 05:26:19;;;;;;;20.80;11.77;;;;;;;1.89;80.30;100956.59;3575345;40;20093;-65
2022/01/08 05:28:45;;;;;;;20.73;10.95;;;;;;;1.94;81.41;100949.41;3575680;40;20562;-64
2022/01/08 05:31:19;;;;;;;25.20;11.38;;;;;;;1.98;81.43;100945.78;3576658;40;20615;-64
2022/01/08 05:33:45;;;;;;;;;;;;;;;2.01;81.31;100951.00;3577141;40;20376;-64
2022/01/08 05:36:10;;;;;;;18.92;10.75;;;;;;;1.98;80.82;100943.13;3582813;40;19938;-64
2022/01/08 05:38:36;;;;;;;15.30;10.10;;;;;;;2.07;81.59;100953.50;3579017;40;20326;-64
2022/01/08 05:41:02;;;;;;;17.63;9.80;;;;;;;2.08;81.00;100949.94;3576827;40;20399;-64
2022/01/08 05:43:28;;;;;;;18.45;10.30;;;;;;;2.09;81.47;100938.44;3576441;40;20395;-64
2022/01/08 05:45:56;;;;;;;16.67;9.48;;;;;;;2.09;81.45;100930.50;3575597;40;20092;-64
2022/01/08 05:48:23;;;;;;;16.02;10.00;;;;;;;2.08;80.28;100938.47;3580772;40;20083;-65
2022/01/08 05:50:49;;;;;;;19.85;9.88;;;;;;;1.99;80.47;100941.34;3575256;40;20072;-65
2022/01/08 05:53:17;;;;;;;18.65;10.30;;;;;;;1.90;80.71;100939.78;3576182;40;20083;-63
2022/01/08 05:55:42;;;;;;;16.83;9.85;;;;;;;1.83;79.81;100932.88;3576128;40;20061;-64
2022/01/08 05:58:08;;;;;;;19.13;10.00;;;;;;;1.96;81.29;100958.19;3565427;40;20053;-64
2022/01/08 06:00:33;;;;;;;18.63;9.57;;;;;;;1.96;80.64;100966.13;3573735;40;20056;-64
2022/01/08 06:02:59;;;;;;;17.42;10.13;;;;;;;1.91;80.31;100970.69;3578831;40;20051;-64
2022/01/08 06:05:25;;;;;;;17.27;10.05;;;;;;;1.88;81.08;100968.13;3576983;40;20052;-66
2022/01/08 06:07:51;;;;;;;15.57;9.73;;;;;;;1.89;80.31;100975.16;3575765;40;20056;-65
2022/01/08 06:10:18;;;;;;;18.02;10.38;;;;;;;1.88;80.83;100978.72;3576024;40;20052;-63
2022/01/08 06:12:45;;;;;;;19.27;10.65;;;;;;;1.85;81.54;100973.50;3579222;40;20098;-65
2022/01/08 06:15:12;;;;;;;16.77;10.23;;;;;;;1.85;80.67;100976.16;3575440;40;20096;-64
2022/01/08 06:17:37;;;;;;;21.17;10.68;;;;;;;1.86;80.79;100975.22;3566183;40;20322;-64
2022/01/08 06:20:05;;;;;;;23.23;10.95;;;;;;;1.87;80.95;100979.59;3576044;40;20133;-64
2022/01/08 06:22:30;;;;;;;17.58;11.23;;;;;;;1.87;80.15;100987.56;3576700;40;20055;-65
2022/01/08 06:24:56;;;;;;;20.65;11.05;;;;;;;1.90;80.97;100990.13;3577431;40;20052;-64
2022/01/08 06:27:22;;;;;;;15.13;10.40;;;;;;;1.87;81.03;100979.59;3578110;40;20052;-63
2022/01/08 06:29:47;;;;;;;14.48;10.35;;;;;;;1.90;80.56;100979.53;3577478;40;20110;-62
2022/01/08 06:32:14;;;;;;;16.42;10.60;;;;;;;1.87;81.08;100982.25;3577430;40;20053;-64
2022/01/08 06:34:41;;;;;;;18.08;11.23;;;;;;;1.91;80.80;100978.66;3575874;40;20468;-64
2022/01/08 06:37:07;;;;;;;18.40;11.07;;;;;;;1.88;80.89;100967.25;3576023;40;20402;-64
2022/01/08 06:39:32;;;;;;;19.30;10.60;;;;;;;1.94;81.38;100972.41;3578590;40;20057;-63
2022/01/08 06:41:58;;;;;;;20.67;11.00;;;;;;;1.92;80.18;100964.47;3575240;40;20055;-66
2022/01/08 06:44:24;;;;;;;21.02;11.32;;;;;;;1.94;81.47;100961.81;3575718;40;20102;-63
2022/01/08 06:46:50;;;;;;;21.40;10.88;;;;;;;1.45;80.90;100873.72;3577837;40;20373;-66
2022/01/08 06:49:15;;;;;;;16.50;10.48;;;;;;;1.94;80.28;100956.50;3575826;40;20097;-64
2022/01/08 06:51:41;;;;;;;19.02;10.85;;;;;;;1.92;79.88;100961.81;3575778;40;20079;-63
2022/01/08 06:54:06;;;;;;;22.75;10.85;;;;;;;1.91;80.74;100953.94;3575724;40;20048;-65
2022/01/08 06:56:32;;;;;;;16.92;10.27;;;;;;;1.86;80.69;100943.41;3575923;40;20465;-64
2022/01/08 06:58:58;;;;;;;21.73;11.63;;;;;;;1.82;80.37;100947.06;3575331;40;20060;-64
2022/01/08 07:01:24;;;;;;;22.52;11.68;;;;;;;1.81;81.44;100950.63;3575107;40;20052;-66
2022/01/08 07:03:50;;;;;;;22.38;11.20;;;;;;;1.81;81.24;100950.63;3575228;40;20060;-64
2022/01/08 07:06:16;;;;;;;21.58;11.95;;;;;;;1.77;80.27;100955.09;3575129;40;20098;-62
2022/01/08 07:08:41;;;;;;;19.27;11.18;;;;;;;1.75;80.74;100956.06;3575283;40;20066;-63
2022/01/08 07:11:07;;;;;;;22.15;12.07;;;;;;;1.74;81.23;100952.53;3575632;40;20044;-65
2022/01/08 07:13:33;;;;;;;22.58;11.68;;;;;;;1.74;80.46;100956.97;3575457;40;20053;-64
2022/01/08 07:15:58;;;;;;;19.83;11.75;;;;;;;1.72;80.86;100953.50;3577644;40;20052;-65
2022/01/08 07:18:24;;;;;;;18.20;11.30;;;;;;;1.69;80.62;100949.13;3574823;40;20481;-65
2022/01/08 07:20:49;;;;;;;23.70;12.40;;;;;;;1.71;81.20;100955.25;3574944;40;20053;-64
2022/01/08 07:23:15;;;;;;;20.00;12.20;;;;;;;1.71;80.93;100954.38;3576626;40;20056;-63
2022/01/08 07:25:41;;;;;;;22.08;12.18;;;;;;;1.71;80.96;100965.84;3575832;40;20076;-64
2022/01/08 07:28:06;;;;;;;21.80;11.38;;;;;;;1.67;81.47;100950.06;3575696;40;20064;-65
2022/01/08 07:30:32;;;;;;;20.58;11.55;;;;;;;1.73;80.81;100955.22;3576831;40;20063;-64
2022/01/08 07:32:57;;;;;;;20.08;11.65;;;;;;;1.72;81.55;100957.00;3575190;40;20309;-63
2022/01/08 07:35:23;;;;;;;23.23;12.68;;;;;;;1.77;82.05;100959.53;3575043;40;20055;-64
2022/01/08 07:37:52;;;;;;;20.83;11.35;;;;;;;1.79;82.21;100957.72;3578429;40;20059;-64
2022/01/08 07:40:20;;;;;;;20.80;11.63;;;;;;;1.82;81.26;100952.38;3578408;40;20044;-64
2022/01/08 07:42:46;;;;;;;24.80;12.25;;;;;;;1.85;81.11;100952.28;3574814;40;20049;-63
2022/01/08 07:45:12;;;;;;;19.25;11.75;;;;;;;1.88;82.03;100954.88;3576403;40;20107;-63
2022/01/08 07:47:38;;;;;;;20.60;12.13;;;;;;;1.91;81.08;100957.44;3578087;40;20362;-64
2022/01/08 07:50:05;;;;;;;22.80;11.45;;;;;;;1.83;81.42;100936.41;3575147;40;20052;-66
2022/01/08 07:52:31;;;;;;;16.95;10.55;;;;;;;1.97;81.05;100952.00;3565297;40;20057;-65
2022/01/08 07:54:57;;;;;;;18.00;10.98;;;;;;;2.02;80.90;100952.75;3574683;40;20065;-65
2022/01/08 07:57:23;;;;;;;20.38;11.43;;;;;;;2.07;80.86;100950.00;3575027;40;20048;-63
2022/01/08 07:59:48;;;;;;;16.50;10.57;;;;;;;2.13;80.99;100944.53;3574903;40;20045;-65
2022/01/08 08:02:14;;;;;;;17.83;10.18;;;;;;;2.01;80.61;100910.38;3576488;40;20053;-66
2022/01/08 08:04:39;;;;;;;15.15;10.43;;;;;;;2.18;80.95;100939.09;3565585;40;20111;-64
2022/01/08 08:07:06;;;;;;;20.13;9.73;;;;;;;1.84;81.37;100863.09;3574418;40;20053;-65
2022/01/08 08:09:31;;;;;;;17.83;10.15;;;;;;;2.29;80.33;100932.63;3572427;40;20055;-64
2022/01/08 08:11:57;;;;;;;18.95;10.35;;;;;;;2.31;80.92;100941.38;3575445;40;20048;-63
2022/01/08 08:14:23;;;;;;;17.48;11.18;;;;;;;2.30;81.24;100933.47;3574817;40;20477;-63
2022/01/08 08:16:48;;;;;;;20.92;11.20;;;;;;;2.36;80.72;100930.69;3574561;40;20051;-64
2022/01/08 08:19:14;;;;;;;24.98;11.38;;;;;;;2.40;81.07;100934.13;3575960;40;20044;-64
2022/01/08 08:21:40;;;;;;;22.75;11.95;;;;;;;2.45;81.41;100926.91;3576396;40;20072;-64
2022/01/08 08:24:06;;;;;;;22.23;11.70;;;;;;;2.32;80.57;100892.75;3573684;40;20107;-66
2022/01/08 08:26:34;;;;;;;22.75;12.75;;;;;;;2.52;80.88;100929.34;3574845;40;20108;-65
2022/01/08 08:28:59;;;;;;;24.30;12.57;;;;;;;2.55;80.51;100918.66;3575441;40;20048;-65
2022/01/08 08:31:25;;;;;;;22.88;12.48;;;;;;;2.52;80.70;100909.91;3577817;40;20056;-65
2022/01/08 08:33:51;;;;;;;25.02;13.55;;;;;;;2.60;81.08;100917.66;3575876;40;20405;-65
2022/01/08 08:36:17;;;;;;;30.50;15.02;;;;;;;2.62;81.10;100913.19;3576122;40;20075;-64
2022/01/08 08:38:43;;;;;;;22.00;13.15;;;;;;;2.64;80.79;100908.72;3573374;40;20304;-64
2022/01/08 08:41:10;;;;;;;23.10;13.80;;;;;;;2.69;80.74;100920.06;3615826;22;20055;-63
2022/01/08 08:43:36;;;;;;;23.92;13.45;;;;;;;2.61;80.46;100898.19;3589305;40;20327;-63
2022/01/08 08:46:02;;;;;;;20.88;14.43;;;;;;;2.69;79.91;100910.31;3588357;40;20054;-63
2022/01/08 08:48:28;;;;;;;20.85;14.23;;;;;;;2.65;79.99;100894.53;3587303;40;20122;-63
2022/01/08 08:50:54;;;;;;;26.15;14.73;;;;;;;2.68;80.58;100886.47;3580338;40;20383;-63
2022/01/08 08:53:19;;;;;;;23.15;14.40;;;;;;;2.83;80.73;100903.75;3576796;40;20111;-62
2022/01/08 08:55:47;;;;;;;24.10;14.07;;;;;;;2.83;80.24;100901.09;3575223;40;20122;-63
2022/01/08 08:58:14;;;;;;;23.95;13.65;;;;;;;2.88;80.10;100900.03;3573111;40;20063;-62
2022/01/08 09:00:41;;;;;;;24.40;15.02;;;;;;;2.79;80.27;100892.31;3574960;40;20310;-63
2022/01/08 09:03:07;;;;;;;24.00;15.85;;;;;;;2.77;80.09;100872.94;3573357;40;20307;-62
2022/01/08 09:05:34;;;;;;;27.70;15.90;;;;;;;2.95;80.22;100900.72;3576360;40;20075;-62
2022/01/08 09:08:00;;;;;;;28.40;16.30;;;;;;;2.94;79.68;100907.81;3575394;40;20410;-62
2022/01/08 09:10:25;;;;;;;25.58;15.35;;;;;;;3.02;79.63;100903.16;3576527;40;20092;-62
2022/01/08 09:12:54;;;;;;;27.40;15.35;;;;;;;3.00;80.03;100899.69;3566620;40;20044;-61
2022/01/08 09:15:23;;;;;;;25.38;16.27;;;;;;;3.05;80.06;100910.19;3575115;40;20110;-61
2022/01/08 09:17:56;;;;;;;25.58;15.93;;;;;;;3.02;79.76;100887.25;3575325;40;20068;-62
2022/01/08 09:20:28;;;;;;;26.17;15.77;;;;;;;3.12;79.79;100906.41;3574808;40;20053;-62
2022/01/08 09:22:54;;;;;;;23.95;15.18;;;;;;;3.26;79.66;100898.88;3576060;40;20051;-63
2022/01/08 09:25:21;;;;;;;29.05;15.27;;;;;;;3.21;79.05;100887.56;3575259;40;20215;-62
2022/01/08 09:27:46;;;;;;;24.20;14.70;;;;;;;3.18;79.92;100870.84;3576435;40;20044;-63
2022/01/08 09:30:12;;;;;;;26.88;16.42;;;;;;;3.15;79.51;100857.66;3578155;40;20045;-63
2022/01/08 09:32:40;;;;;;;27.25;16.25;;;;;;;3.24;79.67;100875.97;3576782;40;20146;-63
2022/01/08 09:35:06;;;;;;;31.45;16.45;;;;;;;3.31;79.60;100868.69;3577035;40;20053;-63
2022/01/08 09:37:33;;;;;;;27.90;16.00;;;;;;;3.14;79.48;100832.88;3574650;40;20048;-62
2022/01/08 09:39:59;;;;;;;25.85;16.08;;;;;;;3.30;79.56;100854.53;3574878;40;20182;-61
2022/01/08 09:42:25;;;;;;;26.08;16.02;;;;;;;3.32;78.75;100850.00;3574355;40;20099;-63
2022/01/08 09:44:52;;;;;;;28.95;15.82;;;;;;;3.34;78.61;100845.53;3575565;40;20388;-62
2022/01/08 09:47:17;;;;;;;29.95;17.00;;;;;;;3.24;78.80;100817.53;3575685;40;20227;-61
2022/01/08 09:49:43;;;;;;;26.02;18.30;;;;;;;3.40;79.42;100834.72;3575519;40;20056;-64
2022/01/08 09:52:09;;;;;;;33.20;18.70;;;;;;;3.52;79.01;100843.19;3580278;40;20052;-63
2022/01/08 09:54:35;;;;;;;29.63;17.20;;;;;;;3.47;78.85;100824.75;3580392;40;20068;-63
2022/01/08 09:57:01;;;;;;;31.08;17.65;;;;;;;3.55;78.73;100825.34;3579724;40;20055;-64
2022/01/08 09:59:28;;;;;;;32.78;18.15;;;;;;;3.67;78.35;100837.38;3578353;40;20045;-63
2022/01/08 10:01:59;;;;;;;29.73;18.02;;;;;;;3.72;78.25;100825.69;3580146;40;20064;-63
2022/01/08 10:04:33;;;;;;;27.23;16.90;;;;;;;3.68;78.31;100815.22;3579527;40;20052;-62
2022/01/08 10:07:22;;;;;;;24.20;16.90;;;;;;;3.72;77.86;100808.88;3579889;40;20048;-63
2022/01/08 10:10:14;;;;;;;28.88;16.88;;;;;;;3.71;77.95;100796.47;3576010;40;20052;-64
2022/01/08 10:12:56;;;;;;;26.27;15.70;;;;;;;3.65;77.84;100786.06;3577339;40;20392;-64
2022/01/08 10:18:36;;;;;;;29.85;16.88;;;;;;;3.80;77.77;100768.72;3568413;40;20122;-63
2022/01/08 10:21:30;;;;;;;29.35;17.50;;;;;;;3.84;78.12;100760.59;3577318;40;20054;-65
2022/01/08 10:24:08;;;;;;;32.55;16.95;;;;;;;3.88;77.98;100746.25;3576676;40;20319;-63
2022/01/08 10:26:38;;;;;;;26.13;15.52;;;;;;;3.88;77.69;100740.94;3566862;40;20398;-63
2022/01/08 10:29:17;;;;;;;26.60;15.45;;;;;;;3.96;77.04;100735.34;3578608;40;20049;-63
2022/01/08 10:31:51;;;;;;;28.05;15.00;;;;;;;3.99;77.54;100732.56;3580439;40;20056;-63
2022/01/08 10:34:33;;;;;;;24.08;15.90;;;;;;;3.99;76.95;100737.03;3576701;40;20121;-64
2022/01/08 10:37:05;;;;;;;25.77;15.70;;;;;;;4.01;76.92;100730.72;3578470;40;20040;-63
2022/01/08 10:39:38;;;;;;;26.77;13.93;;;;;;;4.13;76.88;100718.78;3576206;40;20065;-64
2022/01/08 10:42:17;;;;;;;24.60;14.95;;;;;;;4.07;76.91;100724.31;3576024;40;20067;-64
2022/01/08 10:44:47;;;;;;;25.15;13.95;;;;;;;4.06;76.27;100693.31;3576285;40;20500;-64
2022/01/08 10:47:17;;;;;;;21.48;13.82;;;;;;;4.15;76.90;100699.19;3579019;40;20609;-62
2022/01/08 10:50:00;;;;;;;29.20;14.00;;;;;;;4.18;76.43;100687.53;3581013;40;20143;-62
2022/01/08 10:52:26;;;;;;;22.27;13.15;;;;;;;4.21;76.11;100682.09;3576850;40;20056;-62
2022/01/08 10:55:02;;;;;;;23.92;13.90;;;;;;;4.19;76.91;100674.19;3576211;40;20092;-62
2022/01/08 10:57:45;;;;;;;22.73;13.68;;;;;;;4.25;76.34;100689.06;3576006;40;20351;-62
2022/01/08 11:00:14;;;;;;;24.75;12.88;;;;;;;4.28;76.16;100670.31;3576420;40;20060;-62
2022/01/08 11:02:43;;;;;;;26.98;13.07;;;;;;;4.29;76.33;100674.72;3577281;40;20059;-62
2022/01/08 11:05:11;;;;;;;23.20;11.68;;;;;;;4.35;75.74;100670.94;3579184;40;20068;-63
2022/01/08 11:07:40;;;;;;;19.90;12.55;;;;;;;4.17;75.41;100628.16;3575711;40;20076;-61
2022/01/08 11:10:17;;;;;;;19.58;11.35;;;;;;;4.41;75.63;100654.75;3576607;40;20044;-62
2022/01/08 11:12:46;;;;;;;24.50;11.85;;;;;;;4.44;76.12;100638.66;3575881;40;20069;-62
2022/01/08 11:18:00;;;;;;;17.58;10.20;;;;;;;4.37;75.08;100595.44;3575461;40;20109;-62
2022/01/08 11:20:31;;;;;;;19.08;10.48;;;;;;;4.53;75.08;100619.63;3576280;40;20355;-62
2022/01/08 11:23:02;;;;;;;17.85;10.68;;;;;;;4.47;75.30;100597.72;3579904;40;20045;-62
2022/01/08 11:25:32;;;;;;;17.60;9.75;;;;;;;4.62;74.63;100602.44;3575794;40;20306;-63
2022/01/08 11:28:08;;;;;;;15.07;9.15;;;;;;;4.61;74.90;100598.91;3576733;40;20388;-62
2022/01/08 11:30:44;;;;;;;15.55;9.85;;;;;;;4.69;74.59;100590.59;3579211;40;20068;-63
2022/01/08 11:33:19;;;;;;;20.20;9.40;;;;;;;4.67;74.36;100580.97;3576964;40;20045;-62
2022/01/08 11:35:47;;;;;;;16.25;8.18;;;;;;;4.73;74.33;100570.06;3576716;40;20060;-62
2022/01/08 11:38:19;;;;;;;15.65;8.65;;;;;;;4.83;74.23;100582.91;3577015;40;20053;-62
2022/01/08 11:40:48;;;;;;;16.38;8.38;;;;;;;4.93;74.20;100571.88;3579491;40;20360;-63
2022/01/08 11:43:18;;;;;;;14.98;8.80;;;;;;;4.85;73.73;100548.22;3576344;40;20052;-62
2022/01/08 11:45:56;;;;;;;14.95;9.20;;;;;;;4.92;73.32;100549.69;3576648;40;20131;-62
2022/01/08 11:48:30;;;;;;;13.80;8.15;;;;;;;4.72;73.26;100505.25;3577088;40;20052;-64
2022/01/08 11:50:59;;;;;;;15.63;7.82;;;;;;;4.87;72.94;100512.59;3576328;40;20055;-62